createdAt,value
2019-02-28T16:08:51.194Z,18.03
2019-02-28T16:09:54.139Z,18.24
2019-02-28T16:10:58.190Z,18.41
2019-02-28T16:11:58.625Z,18.31
2019-02-28T16:12:59.144Z,18.41
2019-02-28T16:14:00.529Z,18.42
2019-02-28T16:15:01.658Z,18.55
2019-02-28T16:16:02.090Z,18.67
2019-02-28T16:17:03.522Z,18.70
2019-02-28T16:18:04.093Z,18.71
2019-02-28T16:19:04.519Z,18.78
2019-02-28T16:20:05.062Z,18.76
2019-02-28T16:21:07.369Z,18.68
2019-02-28T16:22:10.674Z,18.76
2019-02-28T16:23:11.104Z,18.71
2019-02-28T16:24:11.614Z,18.82
2019-02-28T16:25:14.886Z,18.81
2019-02-28T16:26:24.743Z,18.83
2019-02-28T16:27:25.170Z,18.83
2019-02-28T16:28:33.359Z,18.73
2019-02-28T16:29:33.823Z,18.83
2019-02-28T16:30:34.423Z,18.81
2019-02-28T16:31:34.850Z,18.83
2019-02-28T16:32:36.344Z,18.91
2019-02-28T16:33:36.772Z,18.91
2019-02-28T16:34:38.799Z,18.81
2019-02-28T16:35:50.053Z,18.91
2019-02-28T16:36:51.532Z,18.88
2019-02-28T16:37:58.826Z,18.83
2019-02-28T16:38:59.253Z,18.79
2019-02-28T16:40:16.225Z,18.82
2019-02-28T16:41:16.676Z,18.78
2019-02-28T16:42:17.565Z,18.82
2019-02-28T16:43:20.783Z,18.79
2019-02-28T16:44:22.190Z,18.85
2019-02-28T16:45:22.644Z,18.82
2019-02-28T16:46:23.138Z,18.83
2019-02-28T16:47:24.464Z,18.85
2019-02-28T16:48:36.637Z,18.82
2019-02-28T16:49:37.674Z,18.91
2019-02-28T16:50:38.245Z,18.86
2019-02-28T16:51:38.718Z,18.91
2019-02-28T16:52:46.746Z,18.79
2019-02-28T16:53:47.972Z,18.94
2019-02-28T16:55:10.223Z,18.83
2019-02-28T16:56:10.673Z,18.83
2019-02-28T16:57:12.243Z,18.81
2019-02-28T16:58:13.499Z,18.76
2019-02-28T16:59:15.026Z,18.79
2019-02-28T17:00:15.459Z,18.83
2019-02-28T17:01:17.576Z,18.82
2019-02-28T17:02:20.951Z,18.79
2019-02-28T17:03:22.430Z,18.79
2019-02-28T17:04:22.860Z,18.73
2019-02-28T17:05:27.012Z,18.81
2019-02-28T17:06:28.742Z,18.78
2019-02-28T17:07:29.218Z,18.82
2019-02-28T17:08:29.646Z,18.81
2019-02-28T17:09:31.179Z,18.76
2019-02-28T17:10:31.699Z,18.82
2019-02-28T17:11:32.251Z,18.79
2019-02-28T17:12:32.692Z,18.74
2019-02-28T17:13:35.558Z,18.79
2019-02-28T17:14:39.563Z,18.79
2019-02-28T17:15:40.005Z,18.83
2019-02-28T17:16:40.551Z,18.83
2019-02-28T17:17:43.493Z,18.83
2019-02-28T17:18:47.424Z,18.79
2019-02-28T17:19:47.879Z,18.82
2019-02-28T17:20:48.404Z,18.85
2019-02-28T17:21:52.395Z,18.79
2019-02-28T17:23:01.389Z,18.83
2019-02-28T17:24:02.574Z,18.78
2019-02-28T17:25:05.074Z,18.79
2019-02-28T17:26:05.529Z,18.81
2019-02-28T17:27:06.425Z,18.79
2019-02-28T17:28:07.813Z,18.78
2019-02-28T17:29:08.339Z,18.79
2019-02-28T17:30:08.766Z,18.82
2019-02-28T17:31:11.522Z,18.79
2019-02-28T17:32:12.962Z,18.83
2019-02-28T17:33:13.391Z,18.74
2019-02-28T17:34:13.835Z,18.81
2019-02-28T17:35:14.292Z,18.78
2019-02-28T17:36:14.771Z,18.79
2019-02-28T17:37:15.215Z,18.81
2019-02-28T17:38:17.714Z,18.79
2019-02-28T17:39:18.156Z,18.78
2019-02-28T17:40:18.643Z,18.79
2019-02-28T17:41:19.110Z,18.79
2019-02-28T17:42:19.591Z,18.79
2019-02-28T17:43:24.136Z,18.79
2019-02-28T17:44:24.823Z,18.81
2019-02-28T17:45:25.258Z,18.79
2019-02-28T17:46:26.100Z,18.85
2019-02-28T17:47:26.541Z,18.79
2019-02-28T17:48:26.974Z,18.89
2019-02-28T17:49:27.415Z,18.81
2019-02-28T17:50:27.943Z,18.81
2019-02-28T17:51:28.393Z,18.78
2019-02-28T17:52:30.440Z,18.71
2019-02-28T17:53:33.994Z,18.88
2019-02-28T17:54:36.227Z,18.82
2019-02-28T17:55:36.877Z,18.82
2019-02-28T17:56:37.563Z,18.76
2019-02-28T17:57:41.689Z,18.88
2019-02-28T17:58:42.188Z,18.79
2019-02-28T17:59:42.625Z,18.74
2019-02-28T18:00:43.055Z,18.79
2019-02-28T18:01:43.607Z,18.83
2019-02-28T18:02:44.038Z,18.85
2019-02-28T18:03:44.985Z,18.82
2019-02-28T18:04:48.624Z,18.81
2019-02-28T18:05:50.223Z,18.81
2019-02-28T18:06:50.721Z,18.94
2019-02-28T18:07:51.194Z,18.92
2019-02-28T18:08:51.621Z,18.79
2019-02-28T18:09:52.124Z,18.85
2019-02-28T18:10:52.560Z,18.91
2019-02-28T18:11:53.096Z,18.89
2019-02-28T18:12:53.525Z,18.82
2019-02-28T18:13:55.410Z,18.78
2019-02-28T18:14:56.557Z,18.94
2019-02-28T18:15:57.025Z,18.94
2019-02-28T18:16:58.626Z,18.89
2019-02-28T18:18:02.036Z,18.91
2019-02-28T18:19:03.189Z,18.94
2019-02-28T18:20:03.669Z,18.85
2019-02-28T18:21:04.477Z,18.91
2019-02-28T18:22:06.168Z,18.92
2019-02-28T18:23:06.600Z,18.94
2019-02-28T18:24:07.074Z,18.83
2019-02-28T18:25:07.538Z,18.88
2019-02-28T18:26:08.004Z,18.86
2019-02-28T18:27:11.697Z,18.79
2019-02-28T18:28:12.846Z,18.86
2019-02-28T18:29:13.350Z,18.91
2019-02-28T18:30:13.776Z,18.86
2019-02-28T18:31:19.056Z,18.97
2019-02-28T18:32:22.762Z,18.86
2019-02-28T18:33:23.207Z,18.86
2019-02-28T18:34:23.639Z,18.98
2019-02-28T18:35:24.147Z,18.94
2019-02-28T18:36:24.625Z,18.89
2019-02-28T18:37:25.440Z,18.94
2019-02-28T18:38:25.914Z,18.86
2019-02-28T18:39:26.535Z,18.88
2019-02-28T18:40:26.977Z,18.85
2019-02-28T18:41:27.566Z,18.86
2019-02-28T18:42:28.015Z,18.86
2019-02-28T18:43:28.513Z,18.89
2019-02-28T18:44:28.939Z,18.88
2019-02-28T18:45:29.547Z,18.89
2019-02-28T18:47:56.673Z,19.09
2019-02-28T18:50:52.813Z,20.50
2019-02-28T18:52:33.586Z,21.19
2019-02-28T18:53:34.575Z,21.47
2019-02-28T18:54:35.179Z,21.51
2019-02-28T18:55:36.044Z,21.75
2019-02-28T18:56:36.599Z,21.83
2019-02-28T18:57:37.228Z,21.94
2019-02-28T18:58:37.838Z,22.14
2019-02-28T18:59:38.478Z,22.15
2019-02-28T19:00:39.113Z,22.23
2019-02-28T19:04:52.991Z,22.59
2019-02-28T19:05:53.424Z,22.19
2019-02-28T19:06:53.868Z,21.56
2019-02-28T19:07:54.338Z,20.95
2019-02-28T19:08:54.793Z,20.30
2019-02-28T19:09:55.220Z,19.67
2019-02-28T19:10:55.724Z,18.96
2019-02-28T19:11:56.166Z,18.39
2019-02-28T19:12:56.693Z,17.90
2019-02-28T19:13:57.124Z,17.49
2019-02-28T19:14:57.613Z,17.05
2019-02-28T19:15:58.052Z,16.59
2019-02-28T19:17:00.581Z,16.40
2019-02-28T19:18:01.029Z,16.03
2019-02-28T19:25:53.559Z,14.67
2019-02-28T19:27:02.009Z,14.48
2019-02-28T19:28:02.468Z,14.38
2019-02-28T19:29:03.962Z,14.33
2019-02-28T19:30:04.396Z,14.19
2019-02-28T19:31:04.828Z,14.05
2019-02-28T19:32:34.074Z,14.01
2019-02-28T19:33:34.522Z,13.85
2019-02-28T19:38:22.907Z,13.61
2019-02-28T19:39:23.346Z,13.60
2019-02-28T19:43:01.968Z,13.43
2019-02-28T19:44:23.406Z,13.43
2019-02-28T19:45:23.841Z,13.30
2019-02-28T19:46:46.375Z,13.24
2019-02-28T19:47:47.636Z,13.28
2019-02-28T19:50:58.735Z,13.26
2019-02-28T19:54:46.387Z,13.24
2019-02-28T19:55:56.653Z,13.09
2019-02-28T19:56:57.247Z,13.16
2019-02-28T19:58:16.288Z,13.13
2019-02-28T19:59:16.728Z,13.08
2019-02-28T20:00:25.783Z,13.12
2019-02-28T20:01:26.236Z,13.20
2019-02-28T20:06:04.582Z,13.17
2019-02-28T20:07:27.061Z,13.12
2019-02-28T20:08:27.516Z,13.09
2019-02-28T20:09:29.021Z,13.11
2019-02-28T20:10:29.457Z,13.11
2019-02-28T20:14:29.122Z,13.17
2019-02-28T20:17:39.171Z,13.09
2019-02-28T20:19:08.126Z,13.05
2019-02-28T20:20:08.566Z,13.06
2019-02-28T20:22:26.008Z,13.03
2019-02-28T20:25:40.547Z,13.09
2019-02-28T20:26:55.965Z,13.02
2019-02-28T20:27:56.427Z,13.03
2019-02-28T20:29:13.494Z,13.03
2019-02-28T20:30:13.921Z,13.06
2019-02-28T20:31:41.975Z,13.05
2019-02-28T20:32:42.407Z,13.02
2019-02-28T20:34:10.996Z,13.03
2019-02-28T20:35:11.421Z,13.03
2019-02-28T20:38:27.454Z,12.99
2019-02-28T20:39:27.947Z,12.98
2019-02-28T20:42:05.870Z,13.06
2019-02-28T20:43:07.362Z,12.98
2019-02-28T20:44:07.833Z,13.03
2019-02-28T20:45:22.911Z,13.03
2019-02-28T20:46:23.342Z,12.94
2019-02-28T20:47:25.804Z,12.93
2019-02-28T20:48:26.249Z,12.95
2019-02-28T20:49:41.368Z,12.90
2019-02-28T20:50:41.797Z,12.95
2019-02-28T20:51:55.056Z,12.81
2019-02-28T20:52:56.296Z,12.81
2019-02-28T20:54:32.941Z,12.81
2019-02-28T20:55:33.375Z,12.78
2019-02-28T20:57:58.809Z,12.81
2019-02-28T21:01:11.902Z,12.80
2019-02-28T21:02:12.500Z,12.66
2019-02-28T21:03:12.934Z,12.69
2019-02-28T21:04:13.383Z,12.61
2019-02-28T21:05:13.823Z,12.63
2019-02-28T21:06:14.370Z,12.54
2019-02-28T21:07:14.813Z,12.54
2019-02-28T21:08:30.253Z,12.54
2019-02-28T21:09:30.700Z,12.63
2019-02-28T21:10:31.207Z,12.58
2019-02-28T21:11:31.636Z,12.58
2019-02-28T21:12:32.079Z,12.54
2019-02-28T21:13:32.521Z,12.55
2019-02-28T21:14:33.055Z,12.53
2019-02-28T21:15:33.487Z,12.50
2019-02-28T21:16:33.910Z,12.61
2019-02-28T21:17:34.408Z,12.57
2019-02-28T21:18:34.845Z,12.51
2019-02-28T21:19:35.553Z,12.57
2019-02-28T21:20:35.979Z,12.57
2019-02-28T21:21:36.410Z,12.62
2019-02-28T21:22:36.848Z,12.55
2019-02-28T21:23:37.300Z,12.53
2019-02-28T21:24:37.841Z,12.48
2019-02-28T21:25:38.270Z,12.48
2019-02-28T21:26:38.700Z,12.50
2019-02-28T21:27:39.189Z,12.47
2019-02-28T21:28:39.632Z,12.47
2019-02-28T21:29:40.055Z,12.47
2019-02-28T21:30:40.487Z,12.45
2019-02-28T21:31:40.918Z,12.44
2019-02-28T21:32:41.355Z,12.44
2019-02-28T21:33:41.836Z,12.47
2019-02-28T21:34:42.269Z,12.43
2019-02-28T21:35:42.708Z,12.47
2019-02-28T21:36:43.140Z,12.47
2019-02-28T21:37:43.577Z,12.40
2019-02-28T21:38:44.033Z,12.32
2019-02-28T21:39:44.460Z,12.36
2019-02-28T21:40:44.892Z,12.37
2019-02-28T21:41:45.352Z,12.40
2019-02-28T21:42:45.807Z,12.39
2019-02-28T21:43:49.798Z,12.36
2019-02-28T21:44:50.238Z,12.39
2019-02-28T21:45:50.660Z,12.40
2019-02-28T21:46:51.106Z,12.44
2019-02-28T21:47:51.551Z,12.39
2019-02-28T21:48:52.081Z,12.36
2019-02-28T21:49:52.980Z,12.43
2019-02-28T22:05:01.864Z,12.36
2019-02-28T22:06:02.321Z,12.36
2019-02-28T22:07:02.751Z,12.23
2019-02-28T22:08:03.178Z,12.18
2019-02-28T22:09:03.626Z,12.14
2019-02-28T22:10:04.071Z,12.14
2019-02-28T22:11:04.625Z,12.10
2019-02-28T22:12:05.066Z,12.05
2019-02-28T22:13:05.507Z,11.97
2019-02-28T22:14:05.961Z,12.03
2019-02-28T22:15:06.492Z,12.02
2019-02-28T22:16:06.916Z,11.97
2019-02-28T22:25:35.501Z,11.81
2019-02-28T22:26:35.933Z,11.85
2019-02-28T22:27:36.399Z,11.80
2019-02-28T22:28:36.831Z,11.83
2019-02-28T22:29:37.366Z,11.77
2019-02-28T22:30:37.791Z,11.83
2019-02-28T22:31:38.272Z,11.78
2019-02-28T22:32:38.711Z,11.80
2019-02-28T22:33:39.207Z,11.88
2019-02-28T22:34:39.655Z,11.89
2019-02-28T22:35:40.079Z,11.85
2019-02-28T22:36:40.507Z,11.88
2019-02-28T22:37:40.974Z,11.81
2019-02-28T22:38:41.409Z,11.86
2019-02-28T22:39:41.959Z,11.85
2019-02-28T22:40:42.387Z,11.86
2019-02-28T22:41:42.850Z,11.89
2019-02-28T22:42:43.285Z,11.80
2019-02-28T22:43:43.785Z,11.89
2019-02-28T22:44:44.255Z,11.83
2019-02-28T22:46:01.603Z,11.89
2019-02-28T22:47:02.034Z,11.95
2019-02-28T22:49:18.524Z,11.89
2019-02-28T22:55:37.053Z,11.88
2019-02-28T22:56:37.480Z,11.83
2019-02-28T22:57:37.941Z,11.83
2019-02-28T22:58:38.369Z,11.81
2019-02-28T22:59:38.805Z,11.85
2019-02-28T23:00:39.296Z,11.76
2019-02-28T23:01:39.728Z,11.80
2019-02-28T23:02:40.167Z,11.81
2019-02-28T23:03:40.647Z,11.76
2019-02-28T23:04:41.110Z,11.80
2019-02-28T23:05:41.534Z,11.78
2019-02-28T23:06:43.022Z,11.68
2019-02-28T23:07:43.449Z,11.65
2019-02-28T23:08:43.936Z,11.68
2019-02-28T23:09:44.375Z,11.71
2019-02-28T23:10:44.870Z,11.67
2019-02-28T23:11:45.301Z,11.59
2019-02-28T23:12:45.808Z,11.45
2019-02-28T23:13:46.235Z,11.43
2019-02-28T23:14:46.776Z,11.37
2019-02-28T23:15:47.206Z,11.41
2019-02-28T23:16:47.676Z,11.25
2019-02-28T23:17:48.105Z,11.38
2019-02-28T23:18:48.611Z,11.30
2019-02-28T23:19:49.061Z,11.20
2019-02-28T23:20:51.608Z,11.22
2019-02-28T23:21:52.055Z,11.22
2019-02-28T23:23:01.502Z,11.12
2019-02-28T23:24:01.939Z,11.10
2019-02-28T23:25:02.394Z,11.02
2019-02-28T23:26:23.847Z,11.15
2019-02-28T23:27:24.282Z,11.12
2019-02-28T23:39:12.941Z,11.12
2019-02-28T23:40:13.387Z,11.05
2019-02-28T23:41:13.848Z,11.05
2019-02-28T23:42:14.276Z,11.18
2019-02-28T23:43:23.484Z,11.10
2019-02-28T23:44:23.908Z,11.13
2019-02-28T23:45:25.446Z,10.97
2019-02-28T23:46:25.894Z,11.04
2019-02-28T23:47:26.321Z,11.15
2019-02-28T23:49:50.823Z,10.97
2019-02-28T23:50:54.481Z,11.07
2019-02-28T23:51:54.917Z,11.02
2019-02-28T23:55:34.117Z,11.07
2019-02-28T23:56:34.569Z,11.04
2019-02-28T23:57:35.105Z,11.02
2019-02-28T23:58:35.540Z,11.05
2019-02-28T23:59:36.039Z,10.97
